sensor_id;sensor_type;location;lat;lon;timestamp;pressure;altitude;pressure_sealevel;temperature;humidity
53868;BME280;41577;47.470;19.080;2023-02-13T00:00:09;102359.06;;;0.84;100.00
53868;BME280;41577;47.470;19.080;2023-02-13T00:00:23;102357.31;;;0.85;100.00
53868;BME280;41577;47.470;19.080;2023-02-13T00:00:35;102361.69;;;0.84;100.00
53868;BME280;41577;47.470;19.080;2023-02-13T00:00:47;102358.22;;;0.83;100.00
53868;BME280;41577;47.470;19.080;2023-02-13T00:00:59;102360.84;;;0.83;100.00
53868;BME280;41577;47.470;19.080;2023-02-13T00:01:10;102360.84;;;0.83;100.00
53868;BME280;41577;47.470;19.080;2023-02-13T00:01:21;102359.06;;;0.84;100.00
53868;BME280;41577;47.470;19.080;2023-02-13T00:01:32;102355.59;;;0.83;100.00
53868;BME280;41577;47.470;19.080;2023-02-13T00:01:43;102352.97;;;0.83;100.00
53868;BME280;41577;47.470;19.080;2023-02-13T00:01:54;102357.31;;;0.85;100.00
53868;BME280;41577;47.470;19.080;2023-02-13T00:02:05;102353.81;;;0.84;100.00
53868;BME280;41577;47.470;19.080;2023-02-13T00:02:16;102351.19;;;0.84;100.00
53868;BME280;41577;47.470;19.080;2023-02-13T00:02:27;102348.72;;;0.81;100.00
53868;BME280;41577;47.470;19.080;2023-02-13T00:02:38;102349.44;;;0.85;100.00
53868;BME280;41577;47.470;19.080;2023-02-13T00:02:49;102354.69;;;0.85;100.00
53868;BME280;41577;47.470;19.080;2023-02-13T00:03:00;102352.06;;;0.85;100.00
53868;BME280;41577;47.470;19.080;2023-02-13T00:03:11;102365.22;;;0.85;100.00
53868;BME280;41577;47.470;19.080;2023-02-13T00:03:22;102351.13;;;0.86;100.00
53868;BME280;41577;47.470;19.080;2023-02-13T00:03:32;102343.44;;;0.81;100.00
53868;BME280;41577;47.470;19.080;2023-02-13T00:03:43;102349.44;;;0.85;100.00
53868;BME280;41577;47.470;19.080;2023-02-13T00:03:55;102350.28;;;0.85;100.00
53868;BME280;41577;47.470;19.080;2023-02-13T00:04:06;102346.78;;;0.85;100.00
53868;BME280;41577;47.470;19.080;2023-02-13T00:04:16;102346.78;;;0.85;100.00
53868;BME280;41577;47.470;19.080;2023-02-13T00:04:28;102355.53;;;0.85;100.00
53868;BME280;41577;47.470;19.080;2023-02-13T00:04:38;102351.13;;;0.86;100.00
53868;BME280;41577;47.470;19.080;2023-02-13T00:04:49;102350.28;;;0.85;100.00
53868;BME280;41577;47.470;19.080;2023-02-13T00:05:00;102350.28;;;0.85;100.00
53868;BME280;41577;47.470;19.080;2023-02-13T00:05:11;102336.56;;;0.78;100.00
53868;BME280;41577;47.470;19.080;2023-02-13T00:05:22;102351.13;;;0.86;100.00
53868;BME280;41577;47.470;19.080;2023-02-13T00:05:33;102344.16;;;0.85;100.00
53868;BME280;41577;47.470;19.080;2023-02-13T00:05:44;102350.28;;;0.85;100.00
53868;BME280;41577;47.470;19.080;2023-02-13T00:05:55;102346.78;;;0.85;100.00
53868;BME280;41577;47.470;19.080;2023-02-13T00:06:07;102351.19;;;0.84;100.00
53868;BME280;41577;47.470;19.080;2023-02-13T00:06:18;102348.56;;;0.84;100.00
53868;BME280;41577;47.470;19.080;2023-02-13T00:06:28;102351.19;;;0.84;100.00
53868;BME280;41577;47.470;19.080;2023-02-13T00:06:39;102348.56;;;0.84;100.00
53868;BME280;41577;47.470;19.080;2023-02-13T00:06:51;102346.88;;;0.83;100.00
53868;BME280;41577;47.470;19.080;2023-02-13T00:07:02;102342.44;;;0.83;100.00
53868;BME280;41577;47.470;19.080;2023-02-13T00:07:13;102346.88;;;0.83;100.00
53868;BME280;41577;47.470;19.080;2023-02-13T00:07:24;102352.13;;;0.83;100.00
53868;BME280;41577;47.470;19.080;2023-02-13T00:07:35;102349.44;;;0.85;100.00
53868;BME280;41577;47.470;19.080;2023-02-13T00:07:45;102342.59;;;0.80;100.00
53868;BME280;41577;47.470;19.080;2023-02-13T00:07:56;102353.81;;;0.84;100.00
53868;BME280;41577;47.470;19.080;2023-02-13T00:08:07;102354.69;;;0.85;100.00
53868;BME280;41577;47.470;19.080;2023-02-13T00:08:18;102357.31;;;0.85;100.00
53868;BME280;41577;47.470;19.080;2023-02-13T00:08:29;102351.19;;;0.84;100.00
53868;BME280;41577;47.470;19.080;2023-02-13T00:08:40;102364.31;;;0.84;100.00
53868;BME280;41577;47.470;19.080;2023-02-13T00:08:51;102355.59;;;0.83;100.00
53868;BME280;41577;47.470;19.080;2023-02-13T00:09:02;102352.97;;;0.83;100.00
53868;BME280;41577;47.470;19.080;2023-02-13T00:09:15;102359.06;;;0.84;100.00
53868;BME280;41577;47.470;19.080;2023-02-13T00:09:26;102353.91;;;0.82;100.00
53868;BME280;41577;47.470;19.080;2023-02-13T00:09:37;102356.53;;;0.82;100.00
53868;BME280;41577;47.470;19.080;2023-02-13T00:09:48;102358.28;;;0.82;100.00
53868;BME280;41577;47.470;19.080;2023-02-13T00:09:59;102354.91;;;0.80;100.00
53868;BME280;41577;47.470;19.080;2023-02-13T00:10:10;102359.22;;;0.81;100.00
53868;BME280;41577;47.470;19.080;2023-02-13T00:10:22;102360.00;;;0.83;100.00
53868;BME280;41577;47.470;19.080;2023-02-13T00:10:33;102363.56;;;0.82;100.00
53868;BME280;41577;47.470;19.080;2023-02-13T00:10:44;102365.28;;;0.83;100.00
53868;BME280;41577;47.470;19.080;2023-02-13T00:10:55;102362.72;;;0.81;100.00
53868;BME280;41577;47.470;19.080;2023-02-13T00:11:07;102361.00;;;0.80;100.00
53868;BME280;41577;47.470;19.080;2023-02-13T00:11:18;102360.91;;;0.82;100.00
53868;BME280;41577;47.470;19.080;2023-02-13T00:11:29;102360.06;;;0.81;100.00
53868;BME280;41577;47.470;19.080;2023-02-13T00:11:40;102363.56;;;0.82;100.00
53868;BME280;41577;47.470;19.080;2023-02-13T00:11:51;102356.75;;;0.78;100.00
53868;BME280;41577;47.470;19.080;2023-02-13T00:12:01;102361.00;;;0.80;100.00
53868;BME280;41577;47.470;19.080;2023-02-13T00:12:13;102359.22;;;0.81;100.00
53868;BME280;41577;47.470;19.080;2023-02-13T00:12:23;102358.44;;;0.79;100.00
53868;BME280;41577;47.470;19.080;2023-02-13T00:12:34;102361.84;;;0.81;100.00
53868;BME280;41577;47.470;19.080;2023-02-13T00:12:45;102356.75;;;0.78;100.00
53868;BME280;41577;47.470;19.080;2023-02-13T00:12:56;102365.34;;;0.81;100.00
53868;BME280;41577;47.470;19.080;2023-02-13T00:13:07;102359.16;;;0.82;100.00
53868;BME280;41577;47.470;19.080;2023-02-13T00:13:18;102358.28;;;0.82;100.00
53868;BME280;41577;47.470;19.080;2023-02-13T00:13:29;102366.19;;;0.82;100.00
53868;BME280;41577;47.470;19.080;2023-02-13T00:13:40;102361.69;;;0.84;100.00
53868;BME280;41577;47.470;19.080;2023-02-13T00:13:51;102356.53;;;0.82;100.00
53868;BME280;41577;47.470;19.080;2023-02-13T00:14:04;102363.50;;;0.83;100.00
53868;BME280;41577;47.470;19.080;2023-02-13T00:14:15;102364.44;;;0.82;100.00
53868;BME280;41577;47.470;19.080;2023-02-13T00:14:26;102364.31;;;0.84;100.00
53868;BME280;41577;47.470;19.080;2023-02-13T00:14:38;102360.00;;;0.83;100.00
53868;BME280;41577;47.470;19.080;2023-02-13T00:14:49;102360.06;;;0.81;100.00
53868;BME280;41577;47.470;19.080;2023-02-13T00:15:00;102356.59;;;0.81;100.00
53868;BME280;41577;47.470;19.080;2023-02-13T00:15:11;102356.59;;;0.81;100.00
53868;BME280;41577;47.470;19.080;2023-02-13T00:15:22;102361.84;;;0.81;100.00
53868;BME280;41577;47.470;19.080;2023-02-13T00:15:33;102361.00;;;0.80;100.00
53868;BME280;41577;47.470;19.080;2023-02-13T00:15:44;102359.22;;;0.81;100.00
53868;BME280;41577;47.470;19.080;2023-02-13T00:15:55;102358.44;;;0.79;100.00
53868;BME280;41577;47.470;19.080;2023-02-13T00:16:06;102358.38;;;0.80;100.00
53868;BME280;41577;47.470;19.080;2023-02-13T00:16:18;102361.00;;;0.80;100.00
53868;BME280;41577;47.470;19.080;2023-02-13T00:16:28;102357.53;;;0.80;100.00
53868;BME280;41577;47.470;19.080;2023-02-13T00:16:39;102365.44;;;0.80;100.00
53868;BME280;41577;47.470;19.080;2023-02-13T00:16:50;102361.09;;;0.79;100.00
53868;BME280;41577;47.470;19.080;2023-02-13T00:17:03;102360.28;;;0.77;100.00
53868;BME280;41577;47.470;19.080;2023-02-13T00:17:14;102364.56;;;0.79;100.00
53868;BME280;41577;47.470;19.080;2023-02-13T00:17:25;102361.09;;;0.79;100.00
53868;BME280;41577;47.470;19.080;2023-02-13T00:17:36;102356.75;;;0.78;100.00
53868;BME280;41577;47.470;19.080;2023-02-13T00:17:47;102361.09;;;0.79;100.00
53868;BME280;41577;47.470;19.080;2023-02-13T00:17:58;102366.34;;;0.79;100.00
53868;BME280;41577;47.470;19.080;2023-02-13T00:18:09;102366.34;;;0.79;100.00
53868;BME280;41577;47.470;19.080;2023-02-13T00:18:20;102367.19;;;0.79;100.00
53868;BME280;41577;47.470;19.080;2023-02-13T00:18:33;102366.34;;;0.79;100.00
53868;BME280;41577;47.470;19.080;2023-02-13T00:18:45;102362.88;;;0.78;100.00
53868;BME280;41577;47.470;19.080;2023-02-13T00:18:55;102360.28;;;0.77;100.00
53868;BME280;41577;47.470;19.080;2023-02-13T00:19:06;102358.59;;;0.76;100.00
53868;BME280;41577;47.470;19.080;2023-02-13T00:19:17;102362.94;;;0.77;100.00
53868;BME280;41577;47.470;19.080;2023-02-13T00:19:28;102355.25;;;0.72;100.00
53868;BME280;41577;47.470;19.080;2023-02-13T00:19:39;102359.44;;;0.76;100.00
53868;BME280;41577;47.470;19.080;2023-02-13T00:19:50;102357.66;;;0.77;100.00
53868;BME280;41577;47.470;19.080;2023-02-13T00:20:01;102360.28;;;0.77;100.00
53868;BME280;41577;47.470;19.080;2023-02-13T00:20:13;102360.28;;;0.77;100.00
53868;BME280;41577;47.470;19.080;2023-02-13T00:20:25;102361.25;;;0.76;100.00
53868;BME280;41577;47.470;19.080;2023-02-13T00:20:35;102364.72;;;0.76;100.00
53868;BME280;41577;47.470;19.080;2023-02-13T00:20:56;102362.09;;;0.76;100.00
53868;BME280;41577;47.470;19.080;2023-02-13T00:21:09;102362.09;;;0.76;100.00
53868;BME280;41577;47.470;19.080;2023-02-13T00:21:20;102362.09;;;0.76;100.00
53868;BME280;41577;47.470;19.080;2023-02-13T00:21:31;102369.03;;;0.77;100.00
53868;BME280;41577;47.470;19.080;2023-02-13T00:21:42;102364.72;;;0.76;100.00
53868;BME280;41577;47.470;19.080;2023-02-13T00:21:53;102367.34;;;0.76;100.00
53868;BME280;41577;47.470;19.080;2023-02-13T00:22:05;102368.19;;;0.77;100.00
53868;BME280;41577;47.470;19.080;2023-02-13T00:22:16;102363.88;;;0.76;100.00
53868;BME280;41577;47.470;19.080;2023-02-13T00:22:27;102366.50;;;0.76;100.00
53868;BME280;41577;47.470;19.080;2023-02-13T00:22:37;102367.34;;;0.76;100.00
53868;BME280;41577;47.470;19.080;2023-02-13T00:22:49;102360.59;;;0.71;100.00
53868;BME280;41577;47.470;19.080;2023-02-13T00:22:59;102362.09;;;0.76;100.00
53868;BME280;41577;47.470;19.080;2023-02-13T00:23:10;102369.03;;;0.77;100.00
53868;BME280;41577;47.470;19.080;2023-02-13T00:23:22;102369.91;;;0.78;100.00
53868;BME280;41577;47.470;19.080;2023-02-13T00:23:34;102365.56;;;0.77;100.00
53868;BME280;41577;47.470;19.080;2023-02-13T00:23:45;102367.34;;;0.76;100.00
53868;BME280;41577;47.470;19.080;2023-02-13T00:23:56;102367.34;;;0.76;100.00
53868;BME280;41577;47.470;19.080;2023-02-13T00:24:07;102368.19;;;0.77;100.00
53868;BME280;41577;47.470;19.080;2023-02-13T00:24:19;102369.03;;;0.77;100.00
53868;BME280;41577;47.470;19.080;2023-02-13T00:24:30;102365.56;;;0.77;100.00
53868;BME280;41577;47.470;19.080;2023-02-13T00:24:41;102372.59;;;0.76;100.00
53868;BME280;41577;47.470;19.080;2023-02-13T00:24:52;102369.97;;;0.76;100.00
53868;BME280;41577;47.470;19.080;2023-02-13T00:25:03;102372.59;;;0.76;100.00
53868;BME280;41577;47.470;19.080;2023-02-13T00:25:14;102373.44;;;0.77;100.00
53868;BME280;41577;47.470;19.080;2023-02-13T00:25:25;102373.44;;;0.77;100.00
53868;BME280;41577;47.470;19.080;2023-02-13T00:25:37;102369.13;;;0.76;100.00
53868;BME280;41577;47.470;19.080;2023-02-13T00:25:49;102371.75;;;0.76;100.00
53868;BME280;41577;47.470;19.080;2023-02-13T00:26:03;102370.81;;;0.77;100.00
53868;BME280;41577;47.470;19.080;2023-02-13T00:26:15;102370.81;;;0.77;100.00
53868;BME280;41577;47.470;19.080;2023-02-13T00:26:28;102369.97;;;0.76;100.00
53868;BME280;41577;47.470;19.080;2023-02-13T00:26:39;102372.59;;;0.76;100.00
53868;BME280;41577;47.470;19.080;2023-02-13T00:26:50;102370.91;;;0.75;100.00
53868;BME280;41577;47.470;19.080;2023-02-13T00:27:01;102375.16;;;0.78;100.00
53868;BME280;41577;47.470;19.080;2023-02-13T00:27:12;102374.28;;;0.77;100.00
53868;BME280;41577;47.470;19.080;2023-02-13T00:27:23;102377.81;;;0.78;100.00
53868;BME280;41577;47.470;19.080;2023-02-13T00:27:34;102379.56;;;0.77;100.00
53868;BME280;41577;47.470;19.080;2023-02-13T00:27:45;102380.44;;;0.78;100.00
53868;BME280;41577;47.470;19.080;2023-02-13T00:27:57;102373.44;;;0.77;100.00
53868;BME280;41577;47.470;19.080;2023-02-13T00:28:08;102379.56;;;0.77;100.00
53868;BME280;41577;47.470;19.080;2023-02-13T00:28:19;102378.63;;;0.78;100.00
53868;BME280;41577;47.470;19.080;2023-02-13T00:28:30;102380.44;;;0.78;100.00
53868;BME280;41577;47.470;19.080;2023-02-13T00:28:41;102380.34;;;0.79;100.00
53868;BME280;41577;47.470;19.080;2023-02-13T00:28:52;102375.16;;;0.78;100.00
53868;BME280;41577;47.470;19.080;2023-02-13T00:29:03;102382.13;;;0.79;100.00
53868;BME280;41577;47.470;19.080;2023-02-13T00:29:14;102378.63;;;0.78;100.00
53868;BME280;41577;47.470;19.080;2023-02-13T00:29:25;102378.63;;;0.78;100.00
53868;BME280;41577;47.470;19.080;2023-02-13T00:29:36;102375.16;;;0.78;100.00
53868;BME280;41577;47.470;19.080;2023-02-13T00:29:47;102375.16;;;0.78;100.00
53868;BME280;41577;47.470;19.080;2023-02-13T00:29:58;102377.81;;;0.78;100.00
53868;BME280;41577;47.470;19.080;2023-02-13T00:30:10;102379.56;;;0.77;100.00
53868;BME280;41577;47.470;19.080;2023-02-13T00:30:22;102364.78;;;0.75;100.00
53868;BME280;41577;47.470;19.080;2023-02-13T00:30:33;102376.91;;;0.77;100.00
53868;BME280;41577;47.470;19.080;2023-02-13T00:30:44;102377.81;;;0.78;100.00
53868;BME280;41577;47.470;19.080;2023-02-13T00:31:01;102378.72;;;0.77;100.00
53868;BME280;41577;47.470;19.080;2023-02-13T00:31:14;102372.59;;;0.76;100.00
53868;BME280;41577;47.470;19.080;2023-02-13T00:31:27;102367.41;;;0.75;100.00
53868;BME280;41577;47.470;19.080;2023-02-13T00:31:39;102376.91;;;0.77;100.00
53868;BME280;41577;47.470;19.080;2023-02-13T00:31:51;102369.03;;;0.77;100.00
53868;BME280;41577;47.470;19.080;2023-02-13T00:32:02;102369.03;;;0.77;100.00
53868;BME280;41577;47.470;19.080;2023-02-13T00:32:13;102372.53;;;0.78;100.00
53868;BME280;41577;47.470;19.080;2023-02-13T00:32:24;102375.16;;;0.78;100.00
53868;BME280;41577;47.470;19.080;2023-02-13T00:32:35;102371.59;;;0.79;100.00
53868;BME280;41577;47.470;19.080;2023-02-13T00:32:46;102375.16;;;0.78;100.00
53868;BME280;41577;47.470;19.080;2023-02-13T00:32:57;102376.84;;;0.79;100.00
53868;BME280;41577;47.470;19.080;2023-02-13T00:33:09;102376.00;;;0.78;100.00
53868;BME280;41577;47.470;19.080;2023-02-13T00:33:20;102365.50;;;0.78;100.00
53868;BME280;41577;47.470;19.080;2023-02-13T00:33:31;102376.00;;;0.78;100.00
53868;BME280;41577;47.470;19.080;2023-02-13T00:33:42;102371.59;;;0.79;100.00
53868;BME280;41577;47.470;19.080;2023-02-13T00:33:53;102367.28;;;0.78;100.00
53868;BME280;41577;47.470;19.080;2023-02-13T00:34:05;102373.31;;;0.80;100.00
53868;BME280;41577;47.470;19.080;2023-02-13T00:34:19;102375.94;;;0.80;100.00
53868;BME280;41577;47.470;19.080;2023-02-13T00:34:30;102377.69;;;0.79;100.00
53868;BME280;41577;47.470;19.080;2023-02-13T00:34:43;102373.31;;;0.80;100.00
53868;BME280;41577;47.470;19.080;2023-02-13T00:34:53;102374.22;;;0.79;100.00
53868;BME280;41577;47.470;19.080;2023-02-13T00:35:05;102376.84;;;0.79;100.00
53868;BME280;41577;47.470;19.080;2023-02-13T00:35:17;102376.84;;;0.79;100.00
53868;BME280;41577;47.470;19.080;2023-02-13T00:35:28;102373.31;;;0.80;100.00
53868;BME280;41577;47.470;19.080;2023-02-13T00:35:39;102371.59;;;0.79;100.00
53868;BME280;41577;47.470;19.080;2023-02-13T00:35:50;102373.31;;;0.80;100.00
53868;BME280;41577;47.470;19.080;2023-02-13T00:36:02;102374.16;;;0.80;100.00
53868;BME280;41577;47.470;19.080;2023-02-13T00:36:15;102372.44;;;0.79;100.00
53868;BME280;41577;47.470;19.080;2023-02-13T00:36:26;102376.84;;;0.79;100.00
53868;BME280;41577;47.470;19.080;2023-02-13T00:36:37;102368.06;;;0.80;100.00
53868;BME280;41577;47.470;19.080;2023-02-13T00:36:48;102372.44;;;0.79;100.00
53868;BME280;41577;47.470;19.080;2023-02-13T00:36:59;102368.97;;;0.79;100.00
53868;BME280;41577;47.470;19.080;2023-02-13T00:37:11;102376.78;;;0.80;100.00
53868;BME280;41577;47.470;19.080;2023-02-13T00:37:22;102373.31;;;0.80;100.00
53868;BME280;41577;47.470;19.080;2023-02-13T00:37:37;102372.38;;;0.81;100.00
53868;BME280;41577;47.470;19.080;2023-02-13T00:37:48;102371.59;;;0.79;100.00
53868;BME280;41577;47.470;19.080;2023-02-13T00:37:58;102376.78;;;0.80;100.00
53868;BME280;41577;47.470;19.080;2023-02-13T00:38:10;102364.56;;;0.79;100.00
53868;BME280;41577;47.470;19.080;2023-02-13T00:38:20;102367.19;;;0.79;100.00
53868;BME280;41577;47.470;19.080;2023-02-13T00:38:31;102368.97;;;0.79;100.00
53868;BME280;41577;47.470;19.080;2023-02-13T00:38:42;102373.31;;;0.80;100.00
53868;BME280;41577;47.470;19.080;2023-02-13T00:38:53;102369.75;;;0.81;100.00
53868;BME280;41577;47.470;19.080;2023-02-13T00:39:04;102366.41;;;0.77;100.00
53868;BME280;41577;47.470;19.080;2023-02-13T00:39:15;102370.69;;;0.80;100.00
53868;BME280;41577;47.470;19.080;2023-02-13T00:39:28;102375.06;;;0.79;100.00
53868;BME280;41577;47.470;19.080;2023-02-13T00:39:39;102374.16;;;0.80;100.00
53868;BME280;41577;47.470;19.080;2023-02-13T00:39:51;102368.13;;;0.78;100.00
53868;BME280;41577;47.470;19.080;2023-02-13T00:40:03;102364.66;;;0.78;100.00
53868;BME280;41577;47.470;19.080;2023-02-13T00:40:14;102367.19;;;0.79;100.00
53868;BME280;41577;47.470;19.080;2023-02-13T00:40:25;102367.28;;;0.78;100.00
53868;BME280;41577;47.470;19.080;2023-02-13T00:40:36;102370.75;;;0.78;100.00
53868;BME280;41577;47.470;19.080;2023-02-13T00:40:47;102368.97;;;0.79;100.00
53868;BME280;41577;47.470;19.080;2023-02-13T00:40:58;102366.50;;;0.76;100.00
53868;BME280;41577;47.470;19.080;2023-02-13T00:41:09;102364.66;;;0.78;100.00
53868;BME280;41577;47.470;19.080;2023-02-13T00:41:21;102368.97;;;0.79;100.00
53868;BME280;41577;47.470;19.080;2023-02-13T00:41:32;102370.69;;;0.80;100.00
53868;BME280;41577;47.470;19.080;2023-02-13T00:41:43;102365.44;;;0.80;100.00
53868;BME280;41577;47.470;19.080;2023-02-13T00:41:55;102368.06;;;0.80;100.00
53868;BME280;41577;47.470;19.080;2023-02-13T00:42:06;102365.44;;;0.80;100.00
53868;BME280;41577;47.470;19.080;2023-02-13T00:42:19;102367.28;;;0.78;100.00
53868;BME280;41577;47.470;19.080;2023-02-13T00:42:29;102364.56;;;0.79;100.00
53868;BME280;41577;47.470;19.080;2023-02-13T00:42:40;102368.97;;;0.79;100.00
53868;BME280;41577;47.470;19.080;2023-02-13T00:42:52;102364.66;;;0.78;100.00
53868;BME280;41577;47.470;19.080;2023-02-13T00:43:03;102359.38;;;0.78;100.00
53868;BME280;41577;47.470;19.080;2023-02-13T00:43:14;102369.81;;;0.79;100.00
53868;BME280;41577;47.470;19.080;2023-02-13T00:43:25;102367.28;;;0.78;100.00
53868;BME280;41577;47.470;19.080;2023-02-13T00:43:36;102366.41;;;0.77;100.00
53868;BME280;41577;47.470;19.080;2023-02-13T00:43:48;102362.94;;;0.77;100.00
53868;BME280;41577;47.470;19.080;2023-02-13T00:44:00;102368.13;;;0.78;100.00
53868;BME280;41577;47.470;19.080;2023-02-13T00:44:11;102367.28;;;0.78;100.00
53868;BME280;41577;47.470;19.080;2023-02-13T00:44:24;102365.56;;;0.77;100.00
53868;BME280;41577;47.470;19.080;2023-02-13T00:44:35;102364.66;;;0.78;100.00
53868;BME280;41577;47.470;19.080;2023-02-13T00:44:46;102364.66;;;0.78;100.00
53868;BME280;41577;47.470;19.080;2023-02-13T00:44:58;102364.66;;;0.78;100.00
53868;BME280;41577;47.470;19.080;2023-02-13T00:45:09;102361.13;;;0.77;100.00
53868;BME280;41577;47.470;19.080;2023-02-13T00:45:20;102371.66;;;0.77;100.00
53868;BME280;41577;47.470;19.080;2023-02-13T00:45:31;102362.94;;;0.77;100.00
53868;BME280;41577;47.470;19.080;2023-02-13T00:45:42;102374.28;;;0.77;100.00
53868;BME280;41577;47.470;19.080;2023-02-13T00:45:53;102375.16;;;0.78;100.00
53868;BME280;41577;47.470;19.080;2023-02-13T00:46:04;102362.88;;;0.78;100.00
53868;BME280;41577;47.470;19.080;2023-02-13T00:46:16;102372.59;;;0.76;100.00
53868;BME280;41577;47.470;19.080;2023-02-13T00:46:27;102375.16;;;0.78;100.00
53868;BME280;41577;47.470;19.080;2023-02-13T00:46:38;102367.34;;;0.76;100.00
53868;BME280;41577;47.470;19.080;2023-02-13T00:46:49;102368.19;;;0.77;100.00
53868;BME280;41577;47.470;19.080;2023-02-13T00:47:01;102370.91;;;0.75;100.00
53868;BME280;41577;47.470;19.080;2023-02-13T00:47:12;102369.13;;;0.76;100.00
53868;BME280;41577;47.470;19.080;2023-02-13T00:47:22;102366.50;;;0.76;100.00
53868;BME280;41577;47.470;19.080;2023-02-13T00:47:34;102375.22;;;0.76;100.00
53868;BME280;41577;47.470;19.080;2023-02-13T00:47:45;102372.59;;;0.76;100.00
53868;BME280;41577;47.470;19.080;2023-02-13T00:47:56;102373.53;;;0.75;100.00
53868;BME280;41577;47.470;19.080;2023-02-13T00:48:08;102373.53;;;0.75;100.00
53868;BME280;41577;47.470;19.080;2023-02-13T00:48:19;102374.38;;;0.76;100.00
53868;BME280;41577;47.470;19.080;2023-02-13T00:48:31;102362.25;;;0.73;100.00
53868;BME280;41577;47.470;19.080;2023-02-13T00:48:43;102371.75;;;0.76;100.00
53868;BME280;41577;47.470;19.080;2023-02-13T00:48:54;102371.75;;;0.76;100.00
53868;BME280;41577;47.470;19.080;2023-02-13T00:49:05;102364.72;;;0.76;100.00
53868;BME280;41577;47.470;19.080;2023-02-13T00:49:18;102364.94;;;0.72;100.00
53868;BME280;41577;47.470;19.080;2023-02-13T00:49:29;102367.34;;;0.76;100.00
53868;BME280;41577;47.470;19.080;2023-02-13T00:49:40;102366.50;;;0.76;100.00
53868;BME280;41577;47.470;19.080;2023-02-13T00:49:52;102368.19;;;0.77;100.00
53868;BME280;41577;47.470;19.080;2023-02-13T00:50:03;102374.38;;;0.76;100.00
53868;BME280;41577;47.470;19.080;2023-02-13T00:50:15;102369.97;;;0.76;100.00
53868;BME280;41577;47.470;19.080;2023-02-13T00:50:26;102370.91;;;0.75;100.00
53868;BME280;41577;47.470;19.080;2023-02-13T00:50:37;102360.41;;;0.75;100.00
53868;BME280;41577;47.470;19.080;2023-02-13T00:50:48;102368.28;;;0.75;100.00
53868;BME280;41577;47.470;19.080;2023-02-13T00:50:59;102366.50;;;0.76;100.00
53868;BME280;41577;47.470;19.080;2023-02-13T00:51:10;102369.97;;;0.76;100.00
53868;BME280;41577;47.470;19.080;2023-02-13T00:51:21;102364.78;;;0.75;100.00
53868;BME280;41577;47.470;19.080;2023-02-13T00:51:32;102371.75;;;0.76;100.00
53868;BME280;41577;47.470;19.080;2023-02-13T00:51:42;102365.78;;;0.72;100.00
53868;BME280;41577;47.470;19.080;2023-02-13T00:51:53;102366.56;;;0.74;100.00
53868;BME280;41577;47.470;19.080;2023-02-13T00:52:06;102367.41;;;0.75;100.00
53868;BME280;41577;47.470;19.080;2023-02-13T00:52:17;102363.94;;;0.74;100.00
53868;BME280;41577;47.470;19.080;2023-02-13T00:52:28;102366.56;;;0.74;100.00
53868;BME280;41577;47.470;19.080;2023-02-13T00:52:39;102366.63;;;0.73;100.00
53868;BME280;41577;47.470;19.080;2023-02-13T00:52:50;102358.97;;;0.68;100.00
53868;BME280;41577;47.470;19.080;2023-02-13T00:53:04;102369.25;;;0.73;100.00
53868;BME280;41577;47.470;19.080;2023-02-13T00:53:15;102364.88;;;0.73;100.00
53868;BME280;41577;47.470;19.080;2023-02-13T00:53:27;102365.72;;;0.74;100.00
53868;BME280;41577;47.470;19.080;2023-02-13T00:53:38;102370.13;;;0.73;100.00
53868;BME280;41577;47.470;19.080;2023-02-13T00:53:49;102374.44;;;0.74;100.00
53868;BME280;41577;47.470;19.080;2023-02-13T00:54:00;102365.66;;;0.75;100.00
53868;BME280;41577;47.470;19.080;2023-02-13T00:54:11;102368.28;;;0.75;100.00
53868;BME280;41577;47.470;19.080;2023-02-13T00:54:22;102366.56;;;0.74;100.00
53868;BME280;41577;47.470;19.080;2023-02-13T00:54:34;102369.19;;;0.74;100.00
53868;BME280;41577;47.470;19.080;2023-02-13T00:54:45;102367.41;;;0.75;100.00
53868;BME280;41577;47.470;19.080;2023-02-13T00:54:57;102363.94;;;0.74;100.00
53868;BME280;41577;47.470;19.080;2023-02-13T00:55:08;102368.28;;;0.75;100.00
53868;BME280;41577;47.470;19.080;2023-02-13T00:55:22;102363.94;;;0.74;100.00
53868;BME280;41577;47.470;19.080;2023-02-13T00:55:33;102369.19;;;0.74;100.00
53868;BME280;41577;47.470;19.080;2023-02-13T00:55:44;102363.88;;;0.76;100.00
53868;BME280;41577;47.470;19.080;2023-02-13T00:55:55;102362.16;;;0.75;100.00
53868;BME280;41577;47.470;19.080;2023-02-13T00:56:06;102363.88;;;0.76;100.00
53868;BME280;41577;47.470;19.080;2023-02-13T00:56:17;102366.50;;;0.76;100.00
53868;BME280;41577;47.470;19.080;2023-02-13T00:56:29;102362.16;;;0.75;100.00
53868;BME280;41577;47.470;19.080;2023-02-13T00:56:40;102360.41;;;0.75;100.00
53868;BME280;41577;47.470;19.080;2023-02-13T00:56:51;102363.09;;;0.74;100.00
53868;BME280;41577;47.470;19.080;2023-02-13T00:57:02;102356.97;;;0.73;100.00
53868;BME280;41577;47.470;19.080;2023-02-13T00:57:13;102358.72;;;0.73;100.00
53868;BME280;41577;47.470;19.080;2023-02-13T00:57:26;102356.09;;;0.73;100.00
53868;BME280;41577;47.470;19.080;2023-02-13T00:57:37;102360.53;;;0.72;100.00
53868;BME280;41577;47.470;19.080;2023-02-13T00:57:48;102361.38;;;0.73;100.00
53868;BME280;41577;47.470;19.080;2023-02-13T00:58:00;102354.41;;;0.72;100.00
53868;BME280;41577;47.470;19.080;2023-02-13T00:58:11;102356.25;;;0.70;100.00
53868;BME280;41577;47.470;19.080;2023-02-13T00:58:22;102364.09;;;0.71;100.00
53868;BME280;41577;47.470;19.080;2023-02-13T00:58:35;102355.31;;;0.71;100.00